Time;durP1;ratioP1;P1;durP2;ratioP2;P2;SDS_P1;SDS_P2;PMS_P1;PMS_P2;Temp;Humidity;BMP_temperature;BMP_pressure;BME280_temperature;BME280_humidity;BME280_pressure;Samples;Min_cycle;Max_cycle;Signal;HPM_P1;HPM_P2
2021/01/07 00:02:25;;;;;;;26.37;17.07;;;0.10;99.90;;;1.02;77.10;93904.78;5052964;28;20665;-70
2021/01/07 00:04:56;;;;;;;27.83;17.17;;;0.10;99.90;;;1.03;77.57;93901.16;5023780;28;20250;-70
2021/01/07 00:07:23;;;;;;;27.47;16.97;;;0.10;99.90;;;1.03;77.75;93902.97;5048697;28;20646;-70
2021/01/07 00:09:49;;;;;;;25.73;17.10;;;0.10;99.90;;;1.04;76.96;93907.97;5048009;28;20192;-67
2021/01/07 00:12:15;;;;;;;29.10;18.13;;;0.10;99.90;;;1.00;77.36;93901.56;5048775;28;20592;-68
2021/01/07 00:14:41;;;;;;;30.07;18.53;;;0.00;99.90;;;0.94;77.22;93905.00;5063518;28;20199;-68
2021/01/07 00:17:10;;;;;;;28.43;17.97;;;0.00;99.90;;;0.97;77.32;93904.56;5051735;28;20671;-67
2021/01/07 00:19:36;;;;;;;31.83;18.80;;;0.00;99.90;;;1.14;77.57;93902.34;5057317;28;20229;-69
2021/01/07 00:22:04;;;;;;;31.43;19.40;;;0.10;99.90;;;1.30;78.12;93899.25;5052436;28;20904;-68
2021/01/07 00:24:30;;;;;;;31.63;18.80;;;0.20;99.90;;;1.17;77.51;93901.91;5052147;28;20697;-68
2021/01/07 00:26:56;;;;;;;33.57;19.90;;;0.20;99.90;;;1.31;77.59;93897.44;5021983;28;20728;-67
2021/01/07 00:29:25;;;;;;;31.07;18.70;;;0.20;99.90;;;1.21;77.54;93908.31;5051758;28;20188;-69
2021/01/07 00:31:50;;;;;;;33.27;20.00;;;0.20;99.90;;;1.13;77.67;93905.94;5051684;28;20712;-68
2021/01/07 00:34:16;;;;;;;36.53;20.90;;;0.10;99.90;;;1.09;77.44;93909.97;5051513;28;20183;-67
2021/01/07 00:36:46;;;;;;;36.37;20.67;;;0.00;99.90;;;1.07;77.96;93900.75;5050902;28;20215;-67
2021/01/07 00:39:12;;;;;;;34.70;18.90;;;0.00;99.90;;;1.24;77.72;93905.31;5051627;28;20188;-67
2021/01/07 00:41:38;;;;;;;31.23;18.90;;;0.10;99.90;;;1.14;77.44;93912.78;5067852;28;20172;-67
2021/01/07 00:44:04;;;;;;;36.87;20.63;;;0.10;99.90;;;1.05;77.37;93911.38;5049908;28;20176;-69
2021/01/07 00:46:32;;;;;;;32.37;19.47;;;0.00;99.90;;;1.03;78.12;93908.19;5048447;28;20180;-67
2021/01/07 00:48:58;;;;;;;33.93;20.43;;;0.00;99.90;;;0.99;77.79;93907.78;5052003;28;20183;-68
2021/01/07 00:51:32;;;;;;;33.70;19.27;;;0.10;99.90;;;1.07;78.04;93905.97;5052401;28;20187;-69
2021/01/07 00:54:00;;;;;;;29.73;19.20;;;0.10;99.90;;;1.01;77.57;93900.56;5051291;28;20191;-70
2021/01/07 00:56:26;;;;;;;30.43;18.47;;;0.10;99.90;;;0.96;77.45;93910.00;5054364;28;20220;-68
2021/01/07 00:58:52;;;;;;;30.77;18.83;;;0.00;99.90;;;0.99;77.69;93909.59;5018639;28;20223;-68
2021/01/07 01:01:17;;;;;;;29.47;17.13;;;0.00;99.90;;;1.08;77.55;93912.78;5067887;28;20186;-69
2021/01/07 01:03:46;;;;;;;29.17;17.77;;;0.20;99.90;;;1.11;77.55;93912.38;5059255;28;20630;-68
2021/01/07 01:06:13;;;;;;;27.40;17.13;;;0.20;99.90;;;1.15;77.91;93914.34;5070386;28;20193;-67
2021/01/07 01:08:39;;;;;;;28.73;18.30;;;0.30;99.90;;;1.16;77.98;93915.97;5067723;28;20749;-68
2021/01/07 01:11:05;;;;;;;27.03;16.70;;;0.30;99.90;;;1.12;77.75;93913.97;5051334;28;20184;-69
2021/01/07 01:13:31;;;;;;;26.30;16.93;;;0.20;99.90;;;0.99;77.92;93910.41;5034455;28;20191;-68
2021/01/07 01:16:03;;;;;;;27.63;16.77;;;0.10;99.90;;;0.99;77.64;93907.78;5052647;28;20215;-67
2021/01/07 01:18:31;;;;;;;26.73;16.80;;;0.10;99.90;;;1.17;77.98;93906.34;5050703;28;20199;-67
2021/01/07 01:20:57;;;;;;;26.23;15.97;;;0.30;99.90;;;1.26;78.54;93907.69;5052014;28;20226;-70
2021/01/07 01:23:23;;;;;;;25.67;16.07;;;0.30;99.90;;;1.37;77.92;93910.47;5017163;28;20635;-68
2021/01/07 01:25:49;;;;;;;24.83;15.27;;;0.40;99.90;;;1.23;77.84;93905.50;5042335;28;20187;-67
2021/01/07 01:28:14;;;;;;;26.13;15.77;;;0.30;99.90;;;1.10;77.72;93906.34;5049989;28;20655;-68
2021/01/07 01:30:40;;;;;;;23.20;15.60;;;0.20;99.90;;;1.00;77.73;93898.97;5048604;28;20211;-67
2021/01/07 01:33:06;;;;;;;21.63;15.17;;;0.10;99.90;;;1.14;78.31;93906.75;5050337;28;20271;-66
2021/01/07 01:35:33;;;;;;;22.77;14.37;;;0.20;99.90;;;1.23;78.12;93913.31;5047975;28;20530;-66
2021/01/07 01:37:59;;;;;;;23.40;14.63;;;0.30;99.90;;;1.27;78.12;93907.50;5050117;28;20199;-67
2021/01/07 01:40:25;;;;;;;22.87;14.97;;;0.30;99.90;;;1.44;78.67;93913.03;5050494;28;20184;-66
2021/01/07 01:42:50;;;;;;;22.97;15.57;;;0.40;99.90;;;1.47;77.62;93913.44;5066825;28;20614;-67
2021/01/07 01:45:19;;;;;;;21.20;14.03;;;0.50;99.90;;;1.40;78.38;93917.88;5067281;28;20188;-68
2021/01/07 01:47:45;;;;;;;21.20;14.23;;;0.40;99.90;;;1.32;78.07;93914.69;5050578;28;20907;-68
2021/01/07 01:50:11;;;;;;;21.07;14.17;;;0.40;99.90;;;1.55;78.09;93922.81;5056150;28;20271;-69
2021/01/07 01:52:37;;;;;;;23.97;14.87;;;0.50;99.90;;;1.57;78.09;93920.81;5052181;28;20180;-68
2021/01/07 01:55:05;;;;;;;20.10;14.20;;;0.50;99.90;;;1.39;77.97;93912.84;5048854;28;20234;-69
2021/01/07 01:57:33;;;;;;;24.27;14.60;;;0.40;99.90;;;1.29;77.74;93913.31;5042450;28;20204;-68
2021/01/07 01:59:59;;;;;;;21.87;13.47;;;0.30;99.90;;;1.21;78.47;93915.34;5023218;28;20642;-68
2021/01/07 02:02:26;;;;;;;20.90;13.47;;;0.20;99.90;;;1.28;78.30;93916.09;5050311;28;20186;-68
2021/01/07 02:04:52;;;;;;;19.37;13.30;;;0.30;99.90;;;1.08;77.80;93908.34;5034538;28;20326;-68
2021/01/07 02:07:22;;;;;;;21.40;13.70;;;0.20;99.90;;;1.12;78.35;93913.97;5050380;28;20211;-69
2021/01/07 02:09:49;;;;;;;22.63;13.57;;;0.10;99.90;;;1.38;77.91;93916.47;5050450;28;20187;-68
2021/01/07 02:12:18;;;;;;;21.77;13.90;;;0.30;99.90;;;1.49;78.31;93906.19;5046765;28;20242;-69
2021/01/07 02:14:49;;;;;;;21.70;13.47;;;0.40;99.90;;;1.30;78.23;93912.31;5049500;28;20236;-68
2021/01/07 02:17:16;;;;;;;21.37;13.97;;;0.30;99.90;;;1.36;77.77;93921.09;5043276;28;20219;-68
2021/01/07 02:19:43;;;;;;;20.20;13.33;;;0.40;99.90;;;1.29;77.41;93915.91;5055638;28;20543;-68
2021/01/07 02:22:09;;;;;;;22.37;14.13;;;0.30;99.90;;;1.09;78.30;93917.78;5033819;28;20637;-67
2021/01/07 02:24:36;;;;;;;22.30;14.57;;;0.20;99.90;;;0.98;78.34;93915.81;5048144;28;20176;-67
2021/01/07 02:27:07;;;;;;;20.53;14.27;;;0.10;99.90;;;1.23;77.52;93921.16;5049390;28;20191;-67
2021/01/07 02:29:35;;;;;;;22.03;14.07;;;0.30;99.90;;;1.34;77.99;93910.84;5047719;28;20637;-68
2021/01/07 02:32:00;;;;;;;21.70;13.73;;;0.30;99.90;;;1.15;77.70;93914.34;5058676;28;20213;-67
2021/01/07 02:34:27;;;;;;;23.13;14.93;;;0.20;99.90;;;1.04;77.50;93909.81;5017426;28;20171;-70
2021/01/07 02:36:53;;;;;;;21.67;14.33;;;0.10;99.90;;;1.11;78.28;93904.56;5050277;28;20265;-70
2021/01/07 02:39:19;;;;;;;23.17;14.60;;;0.20;99.90;;;0.99;77.45;93902.56;5049596;28;20194;-67
2021/01/07 02:41:55;;;;;;;21.23;13.83;;;0.10;99.90;;;0.98;77.58;93903.56;5050415;28;20191;-69
2021/01/07 02:44:24;;;;;;;23.87;14.50;;;0.00;99.90;;;1.12;77.60;93900.91;5030414;28;20697;-68
2021/01/07 02:46:51;;;;;;;21.57;14.17;;;0.10;99.90;;;1.15;77.56;93903.91;5070038;28;20321;-68
2021/01/07 02:49:19;;;;;;;24.30;14.27;;;0.20;99.90;;;1.19;77.95;93904.31;5055427;28;20175;-69
2021/01/07 02:51:46;;;;;;;22.93;14.67;;;0.20;99.90;;;0.98;78.12;93903.56;5025403;28;20834;-70
2021/01/07 02:54:12;;;;;;;22.63;14.97;;;0.00;99.90;;;0.92;77.37;93898.38;5052232;28;20718;-69
2021/01/07 02:56:38;;;;;;;24.50;14.87;;;0.00;99.90;;;1.10;78.57;93905.56;5053838;28;20184;-68
2021/01/07 02:59:04;;;;;;;24.53;16.07;;;0.00;99.90;;;1.15;78.11;93897.88;5050050;28;20196;-69
2021/01/07 03:01:30;;;;;;;24.97;15.40;;;0.20;99.90;;;1.20;78.13;93900.69;5053623;28;20206;-67
2021/01/07 03:03:55;;;;;;;24.07;15.63;;;0.20;99.90;;;1.29;77.64;93896.84;5049908;28;20184;-70
2021/01/07 03:06:23;;;;;;;26.13;16.07;;;0.20;99.90;;;1.28;78.36;93903.06;5050468;28;20583;-68
2021/01/07 03:08:58;;;;;;;24.77;15.90;;;0.20;99.90;;;1.18;78.47;93900.88;5055195;28;20318;-68
2021/01/07 03:11:24;;;;;;;25.43;16.23;;;0.20;99.90;;;1.26;78.62;93905.09;5053728;28;20191;-69
2021/01/07 03:13:50;;;;;;;25.93;16.40;;;0.30;99.90;;;1.13;78.08;93905.13;5053300;28;20773;-68
2021/01/07 03:16:15;;;;;;;25.03;15.53;;;0.20;99.90;;;1.04;77.80;93894.91;5042478;28;20271;-68
2021/01/07 03:18:41;;;;;;;24.33;16.07;;;0.20;99.90;;;1.15;77.82;93892.66;5069145;28;20211;-68
2021/01/07 03:21:08;;;;;;;30.43;17.47;;;0.20;99.90;;;1.07;78.03;93892.91;5056418;28;20281;-68
2021/01/07 03:23:34;;;;;;;25.90;16.40;;;0.20;99.90;;;1.16;78.25;93889.06;5053334;28;20207;-68
2021/01/07 03:26:00;;;;;;;24.73;16.00;;;0.30;99.90;;;1.02;77.92;93894.34;5025733;28;20258;-68
2021/01/07 03:28:28;;;;;;;28.37;17.40;;;0.10;99.90;;;0.96;77.90;93892.56;5065679;28;20544;-69
2021/01/07 03:30:57;;;;;;;27.90;16.90;;;0.10;99.90;;;0.87;78.27;93893.00;5050409;28;20315;-69
2021/01/07 03:33:22;;;;;;;29.87;17.83;;;0.00;99.90;;;0.82;78.13;93893.59;5066402;28;20227;-68
2021/01/07 03:35:49;;;;;;;30.73;18.77;;;-0.10;99.90;;;0.83;78.34;93890.00;5045209;28;20191;-69
2021/01/07 03:38:15;;;;;;;26.13;17.50;;;-0.20;99.90;;;0.78;78.66;93886.38;5052265;28;20208;-68
2021/01/07 03:40:41;;;;;;;29.13;18.00;;;-0.20;99.90;;;0.83;77.71;93889.19;5045070;28;20279;-68
2021/01/07 03:43:07;;;;;;;29.10;18.17;;;-0.20;99.90;;;0.80;78.41;93889.59;5048304;28;20669;-69
2021/01/07 03:45:33;;;;;;;29.47;18.03;;;-0.20;99.90;;;0.80;78.01;93893.00;5052641;28;20646;-69
2021/01/07 03:48:04;;;;;;;30.77;19.23;;;-0.20;99.90;;;0.74;78.74;93885.22;5053039;28;20180;-68
2021/01/07 03:50:30;;;;;;;29.90;18.87;;;-0.30;99.90;;;0.73;78.22;93884.41;5056554;28;20188;-67
2021/01/07 03:52:56;;;;;;;33.47;20.37;;;-0.30;99.90;;;0.76;78.89;93884.00;5055996;28;20188;-70
2021/01/07 03:55:23;;;;;;;32.30;19.03;;;-0.30;99.90;;;0.75;78.35;93884.19;5051218;28;20184;-68
2021/01/07 03:57:51;;;;;;;33.37;19.03;;;-0.20;99.90;;;0.75;78.29;93887.59;5054064;28;20208;-68
2021/01/07 04:00:17;;;;;;;32.40;19.90;;;-0.20;99.90;;;0.68;77.98;93886.81;5040329;28;20183;-68
2021/01/07 04:02:43;;;;;;;31.20;18.63;;;-0.30;99.90;;;0.70;78.89;93890.03;5049735;28;20190;-69
2021/01/07 04:05:10;;;;;;;30.13;19.47;;;-0.30;99.90;;;0.73;78.89;93889.63;5038829;28;20642;-68
2021/01/07 04:07:38;;;;;;;35.07;20.10;;;-0.30;99.90;;;0.72;78.71;93888.00;5002443;28;20188;-70
2021/01/07 04:10:08;;;;;;;32.83;19.13;;;-0.30;99.90;;;0.73;78.44;93894.03;5052352;28;20517;-68
2021/01/07 04:12:35;;;;;;;33.67;20.30;;;-0.30;99.90;;;0.69;79.01;93888.41;5052270;28;20182;-68
2021/01/07 04:15:03;;;;;;;31.73;19.03;;;-0.30;99.90;;;0.80;78.48;93885.19;5054953;28;20192;-69
2021/01/07 04:17:31;;;;;;;32.93;19.77;;;-0.20;99.90;;;0.81;78.77;93888.56;5052559;28;20203;-68
2021/01/07 04:19:57;;;;;;;33.03;19.97;;;-0.20;99.90;;;0.76;78.39;93884.00;5052495;28;20172;-68
2021/01/07 04:22:23;;;;;;;34.97;20.50;;;-0.20;99.90;;;0.82;78.40;93880.56;5068322;28;20182;-68
2021/01/07 04:24:49;;;;;;;33.57;20.20;;;-0.20;99.90;;;0.82;78.97;93879.75;5052275;28;20187;-69
2021/01/07 04:27:15;;;;;;;36.20;21.07;;;-0.20;99.90;;;0.87;78.80;93880.72;5035506;28;20179;-68
2021/01/07 04:29:44;;;;;;;31.33;19.57;;;-0.10;99.90;;;0.94;78.82;93883.34;5049352;28;20552;-68
2021/01/07 04:32:10;;;;;;;32.67;19.90;;;0.00;99.90;;;0.88;78.49;93871.91;5051254;28;20250;-68
2021/01/07 04:34:41;;;;;;;32.73;21.37;;;0.00;99.90;;;0.87;78.76;93878.13;5052031;28;20187;-69
2021/01/07 04:37:07;;;;;;;33.93;20.03;;;-0.10;99.90;;;0.92;79.28;93878.31;5052240;28;20180;-69
2021/01/07 04:39:34;;;;;;;32.70;20.83;;;0.00;99.90;;;0.95;78.97;93874.50;5032330;28;20192;-69
2021/01/07 04:42:03;;;;;;;33.33;20.70;;;0.00;99.90;;;0.96;78.92;93876.09;5048347;28;20204;-68
2021/01/07 04:44:30;;;;;;;32.40;20.20;;;0.10;99.90;;;0.94;78.53;93873.69;5057073;28;20177;-68
2021/01/07 04:47:00;;;;;;;33.87;21.83;;;0.00;99.90;;;1.01;78.79;93869.25;5045640;28;20181;-69
2021/01/07 04:49:26;;;;;;;33.53;19.77;;;0.10;99.90;;;0.92;79.30;93880.94;5043414;28;20255;-68
2021/01/07 04:51:52;;;;;;;31.33;19.43;;;0.00;99.90;;;0.95;79.48;93877.91;5035231;28;20188;-68
2021/01/07 04:54:19;;;;;;;29.47;18.70;;;0.00;99.90;;;0.99;78.82;93875.69;5051702;28;20185;-68
2021/01/07 04:56:45;;;;;;;30.73;19.87;;;0.00;99.90;;;1.04;78.53;93875.88;5051204;28;20179;-68
2021/01/07 04:59:13;;;;;;;30.70;19.93;;;0.10;99.90;;;1.01;78.92;93873.66;5044071;28;20281;-68
2021/01/07 05:01:41;;;;;;;31.60;19.67;;;0.10;99.90;;;0.98;79.43;93871.47;5062019;28;20184;-69
2021/01/07 05:04:09;;;;;;;28.37;19.10;;;0.10;99.90;;;1.18;78.65;93866.16;5051399;28;20877;-69
2021/01/07 05:06:36;;;;;;;33.30;19.50;;;0.20;99.90;;;1.22;78.96;93859.53;5047852;28;20208;-70
2021/01/07 05:09:05;;;;;;;27.57;18.00;;;0.20;99.90;;;1.31;78.48;93866.13;5031639;28;20189;-68
2021/01/07 05:11:40;;;;;;;28.93;18.37;;;0.30;99.90;;;1.46;78.79;93864.03;5045269;28;20180;-68
2021/01/07 05:14:11;;;;;;;30.30;18.03;;;0.40;99.90;;;1.24;78.75;93868.78;5002169;28;20207;-68
2021/01/07 05:16:37;;;;;;;29.20;18.70;;;0.30;99.90;;;1.07;79.22;93866.84;5034185;28;20286;-68
2021/01/07 05:19:08;;;;;;;28.67;18.20;;;0.20;99.90;;;0.90;78.40;93872.53;5050632;28;20192;-69
2021/01/07 05:21:35;;;;;;;29.20;18.27;;;0.10;99.90;;;0.71;79.01;93873.38;5047615;28;20176;-69
2021/01/07 05:24:04;;;;;;;37.90;20.70;;;-0.10;99.90;;;0.62;79.18;93879.81;5030892;28;20207;-68
2021/01/07 05:26:30;;;;;;;32.07;19.63;;;-0.30;99.90;;;0.52;79.12;93867.19;5042819;28;20197;-68
2021/01/07 05:28:57;;;;;;;31.87;19.80;;;-0.30;99.90;;;0.55;78.47;93871.19;5051917;28;20257;-68
2021/01/07 05:31:26;;;;;;;33.70;20.70;;;-0.40;99.90;;;0.55;79.16;93867.78;5050592;28;20209;-69
2021/01/07 05:33:53;;;;;;;37.10;21.37;;;-0.40;99.90;;;0.66;78.70;93867.97;5050949;28;20197;-70
2021/01/07 05:36:29;;;;;;;34.77;20.67;;;-0.30;99.90;;;0.73;79.00;93868.75;5050786;28;20267;-68
2021/01/07 05:39:06;;;;;;;30.20;19.13;;;-0.30;99.90;;;0.79;78.97;93870.53;5014409;28;20199;-68
2021/01/07 05:41:33;;;;;;;32.53;21.17;;;-0.30;99.90;;;0.69;79.44;93867.56;5048037;28;20175;-68
2021/01/07 05:43:59;;;;;;;36.63;21.63;;;-0.30;99.90;;;0.59;79.54;93871.59;5051282;28;20539;-68
2021/01/07 05:46:26;;;;;;;39.33;23.17;;;-0.40;99.90;;;0.66;79.49;93867.16;5041402;28;20187;-68
2021/01/07 05:48:58;;;;;;;37.47;22.50;;;-0.30;99.90;;;0.66;79.26;93867.16;5047702;28;20666;-68
2021/01/07 05:51:26;;;;;;;35.93;21.60;;;-0.30;99.90;;;0.82;78.69;93864.09;5048548;28;20788;-70
2021/01/07 05:53:55;;;;;;;37.17;22.33;;;-0.20;99.90;;;0.76;79.12;93868.34;5027374;28;20207;-69
2021/01/07 05:56:25;;;;;;;36.80;22.23;;;-0.20;99.90;;;0.71;79.29;93868.16;5048236;28;20197;-69
2021/01/07 05:58:54;;;;;;;35.87;21.43;;;-0.20;99.90;;;0.70;78.81;93870.97;5023480;28;20211;-67
2021/01/07 06:01:22;;;;;;;34.23;20.67;;;-0.30;99.90;;;0.77;78.83;93863.94;5046256;28;20271;-68
2021/01/07 06:03:53;;;;;;;37.23;20.90;;;-0.30;99.90;;;0.81;78.87;93876.34;5044918;28;20671;-69
2021/01/07 06:06:24;;;;;;;34.10;20.77;;;-0.20;99.90;;;0.99;79.28;93867.84;5045946;28;20188;-68
2021/01/07 06:08:55;;;;;;;35.73;20.87;;;0.00;99.90;;;1.09;79.60;93868.22;5048390;28;20183;-68
2021/01/07 06:11:24;;;;;;;33.80;21.13;;;0.10;99.90;;;1.14;78.81;93865.81;5032082;28;20227;-68
2021/01/07 06:13:53;;;;;;;30.33;19.23;;;0.10;99.90;;;0.99;79.74;93858.22;5050024;28;20194;-68
2021/01/07 06:16:23;;;;;;;33.40;20.07;;;0.10;99.90;;;1.08;79.49;93868.41;5033564;28;20215;-69
2021/01/07 06:18:50;;;;;;;30.20;19.07;;;0.10;99.90;;;1.01;79.39;93866.63;5046314;28;20199;-70
2021/01/07 06:21:19;;;;;;;30.17;19.47;;;0.10;99.90;;;0.95;78.87;93862.25;5052411;28;20706;-68
2021/01/07 06:23:47;;;;;;;31.30;19.77;;;0.00;99.90;;;0.94;78.83;93862.47;5069203;28;20903;-68
2021/01/07 06:26:27;;;;;;;36.07;20.90;;;0.00;99.90;;;0.92;79.39;93867.09;5051008;28;20618;-70
2021/01/07 06:29:00;;;;;;;32.37;20.07;;;0.10;99.90;;;0.83;79.34;93871.75;5037132;28;20223;-69
2021/01/07 06:31:37;;;;;;;34.83;20.13;;;0.00;99.90;;;0.80;79.04;93866.13;5046643;28;20290;-69
2021/01/07 06:34:05;;;;;;;34.20;19.70;;;-0.10;99.90;;;0.76;79.36;93867.53;5050514;28;20214;-69
2021/01/07 06:36:50;;;;;;;30.77;19.80;;;-0.10;99.90;;;0.88;79.51;93873.72;5043272;28;20187;-68
2021/01/07 06:39:21;;;;;;;33.97;20.57;;;-0.10;99.90;;;0.90;79.10;93874.31;5048056;28;20214;-69
2021/01/07 06:41:54;;;;;;;33.23;20.50;;;-0.10;99.90;;;0.94;79.44;93878.13;5052984;28;20182;-68
2021/01/07 06:44:21;;;;;;;32.17;20.00;;;0.00;99.90;;;0.98;79.70;93876.69;5050080;28;20191;-68
2021/01/07 06:46:49;;;;;;;30.77;18.40;;;0.00;99.90;;;1.14;78.95;93875.44;5050642;28;20187;-69
2021/01/07 06:49:21;;;;;;;30.37;19.30;;;0.10;99.90;;;1.11;78.91;93876.63;5042701;28;20187;-68
2021/01/07 06:52:05;;;;;;;34.53;20.30;;;0.10;99.90;;;0.98;79.41;93877.50;5052647;28;20184;-69
2021/01/07 06:54:42;;;;;;;32.87;19.57;;;0.00;99.90;;;0.89;78.82;93877.94;5050913;28;20194;-69
2021/01/07 06:57:17;;;;;;;31.97;19.10;;;0.00;99.90;;;0.91;79.41;93879.31;5040328;28;20186;-69
2021/01/07 06:59:58;;;;;;;32.03;19.60;;;-0.10;99.90;;;0.88;79.25;93876.31;5044088;28;20172;-69
2021/01/07 07:02:25;;;;;;;29.93;19.63;;;-0.10;99.90;;;0.83;79.14;93878.75;5033055;28;20187;-70
2021/01/07 07:05:08;;;;;;;31.07;19.40;;;-0.10;99.90;;;0.76;79.40;93875.38;5045962;28;20187;-69
2021/01/07 07:07:57;;;;;;;33.80;18.57;;;-0.20;99.90;;;0.91;78.97;93876.72;5049885;28;20187;-71
2021/01/07 07:10:23;;;;;;;31.33;18.93;;;-0.10;99.90;;;0.95;79.55;93885.72;5052235;28;20187;-68
2021/01/07 07:12:52;;;;;;;32.90;19.53;;;-0.10;99.90;;;1.16;78.93;93882.03;5053567;28;20528;-69
2021/01/07 07:15:24;;;;;;;31.23;18.47;;;0.10;99.90;;;1.24;78.72;93881.81;5050698;28;20191;-67
2021/01/07 07:17:55;;;;;;;35.93;20.40;;;0.20;99.90;;;1.18;79.46;93898.28;5050513;28;20230;-69
2021/01/07 07:20:25;;;;;;;32.60;19.57;;;0.20;99.90;;;1.14;79.33;93886.69;5050495;28;20188;-69
2021/01/07 07:22:54;;;;;;;31.80;19.77;;;0.20;99.90;;;1.26;79.21;93889.41;5060685;28;20202;-69
2021/01/07 07:25:25;;;;;;;29.63;18.53;;;0.30;99.90;;;1.10;79.16;93895.13;5020003;28;20173;-69
2021/01/07 07:28:04;;;;;;;37.23;21.47;;;0.30;99.90;;;0.91;79.46;93892.34;5052879;28;20184;-69
2021/01/07 07:30:35;;;;;;;39.17;21.43;;;0.10;99.90;;;1.15;78.71;93898.69;5051874;28;20204;-69
2021/01/07 07:33:02;;;;;;;40.57;21.60;;;0.10;99.90;;;1.17;79.19;93901.13;5030505;28;20611;-69
2021/01/07 07:35:35;;;;;;;38.30;22.20;;;0.20;99.90;;;1.09;79.16;93894.31;5057696;28;20252;-70
2021/01/07 07:38:10;;;;;;;37.03;22.63;;;0.20;99.90;;;0.93;78.58;93910.44;5048100;28;20556;-69
2021/01/07 07:40:41;;;;;;;38.60;22.40;;;0.00;99.90;;;1.04;79.43;93901.97;5049530;28;20249;-68
2021/01/07 07:43:08;;;;;;;38.20;22.47;;;0.00;99.90;;;0.94;79.28;93899.00;5035163;28;20180;-67
2021/01/07 07:45:38;;;;;;;44.13;23.50;;;0.00;99.90;;;0.83;78.90;93897.81;5043352;28;20168;-67
2021/01/07 07:48:08;;;;;;;47.53;24.67;;;-0.10;99.90;;;0.98;79.21;93897.56;5050247;28;20189;-66
2021/01/07 07:50:37;;;;;;;42.43;23.40;;;0.00;99.90;;;0.97;78.91;93899.34;5052122;28;20619;-67
2021/01/07 07:53:06;;;;;;;43.03;23.43;;;0.00;99.90;;;1.14;79.67;93896.31;5023379;28;20188;-70
2021/01/07 07:55:43;;;;;;;39.93;21.87;;;0.10;99.90;;;1.23;79.41;93908.09;5045310;28;20266;-69
2021/01/07 07:58:18;;;;;;;39.57;23.33;;;0.20;99.90;;;1.21;79.24;93902.31;5026966;28;20226;-68
2021/01/07 08:00:54;;;;;;;42.33;23.50;;;0.20;99.90;;;1.11;79.77;93902.72;5062998;28;20697;-67
2021/01/07 08:03:29;;;;;;;40.10;22.70;;;0.20;99.90;;;1.20;79.46;93903.31;5041155;28;20245;-72
2021/01/07 08:06:00;;;;;;;35.77;21.97;;;0.20;99.90;;;1.25;78.73;93903.47;5041066;28;20186;-69
2021/01/07 08:08:34;;;;;;;36.83;22.07;;;0.20;99.90;;;1.28;79.99;93906.47;5044926;28;20309;-69
2021/01/07 08:11:02;;;;;;;38.53;22.57;;;0.30;99.90;;;1.23;79.09;93906.31;5051174;28;20733;-70
2021/01/07 08:13:31;;;;;;;36.70;21.77;;;0.30;99.90;;;1.18;79.19;93906.09;5032656;28;20196;-71
2021/01/07 08:16:01;;;;;;;35.57;20.83;;;0.20;99.90;;;1.21;78.95;93908.31;5067408;28;20185;-71
2021/01/07 08:18:29;;;;;;;32.47;19.13;;;0.30;99.90;;;1.29;79.83;93913.31;5065239;28;20242;-71
2021/01/07 08:21:08;;;;;;;31.33;18.87;;;0.30;99.90;;;1.23;79.21;93916.75;5050004;28;20212;-71
2021/01/07 08:23:35;;;;;;;29.43;18.93;;;0.20;99.90;;;1.32;78.68;93909.47;5059133;28;20234;-70
2021/01/07 08:26:03;;;;;;;51.90;30.53;;;0.30;99.90;;;1.19;78.72;93912.94;5065429;28;20274;-70
2021/01/07 08:28:43;;;;;;;56.20;31.70;;;0.20;99.90;;;1.15;78.93;93910.94;5048780;28;20254;-70
2021/01/07 08:31:18;;;;;;;41.77;24.73;;;0.20;99.90;;;1.09;79.29;93907.34;5046364;28;20231;-71
2021/01/07 08:33:47;;;;;;;34.77;19.63;;;0.10;99.90;;;0.93;79.38;93902.59;5045968;28;20233;-70
2021/01/07 08:36:20;;;;;;;30.47;18.93;;;0.00;99.90;;;1.10;79.57;93906.34;5042254;28;20628;-71
2021/01/07 08:38:52;;;;;;;32.00;18.67;;;0.10;99.90;;;1.31;78.76;93903.44;5050782;28;20265;-70
2021/01/07 08:41:29;;;;;;;25.20;16.23;;;0.20;99.90;;;1.21;79.31;93900.47;5045227;28;20188;-70
2021/01/07 08:43:56;;;;;;;24.77;15.37;;;0.20;99.90;;;1.33;78.63;93908.47;5049279;28;20183;-68
2021/01/07 08:46:28;;;;;;;26.27;16.23;;;0.20;99.90;;;1.23;79.05;93903.69;5048656;28;20290;-68
2021/01/07 08:49:09;;;;;;;27.87;17.20;;;0.20;99.90;;;1.43;79.70;93906.22;5047650;28;20180;-70
2021/01/07 08:51:46;;;;;;;24.23;16.03;;;0.40;99.90;;;1.56;78.72;93913.97;5063396;28;20190;-71
2021/01/07 08:54:23;;;;;;;25.53;15.73;;;0.50;99.90;;;1.78;79.38;93910.03;5063602;28;20183;-72
2021/01/07 08:56:55;;;;;;;22.23;14.63;;;0.70;99.90;;;1.83;78.97;93923.25;5076177;28;20198;-70
2021/01/07 08:59:32;;;;;;;23.87;15.30;;;0.80;99.90;;;1.88;79.31;93922.66;5065248;28;20798;-71
2021/01/07 09:02:19;;;;;;;22.30;15.07;;;0.80;99.90;;;1.98;78.54;93915.16;5031468;28;20717;-70
2021/01/07 09:04:49;;;;;;;23.20;15.57;;;0.90;99.90;;;2.13;79.13;93910.41;5051362;28;21529;-70
2021/01/07 09:07:15;;;;;;;23.97;15.33;;;1.00;99.90;;;2.33;79.23;93912.84;5035655;28;20195;-70
2021/01/07 09:09:55;;;;;;;24.43;16.50;;;1.20;99.90;;;2.15;78.89;93920.66;5050616;28;20186;-70
2021/01/07 09:12:27;;;;;;;26.23;16.97;;;1.20;99.90;;;2.25;79.08;93916.53;5068551;28;20557;-70
2021/01/07 09:15:23;;;;;;;25.20;16.13;;;1.30;99.90;;;2.31;79.14;93910.47;5044531;28;20550;-70
2021/01/07 09:17:57;;;;;;;22.70;15.27;;;1.30;99.90;;;2.39;78.48;93912.00;5046416;28;20306;-69
2021/01/07 09:20:31;;;;;;;28.23;19.23;;;1.40;99.90;;;2.69;78.81;93910.31;5047060;28;20188;-69
2021/01/07 09:23:15;;;;;;;27.63;18.90;;;1.60;99.90;;;2.75;79.07;93917.31;5045005;28;20176;-69
2021/01/07 09:25:41;;;;;;;27.00;17.13;;;1.80;99.90;;;2.90;78.55;93907.28;5043057;28;20245;-69
2021/01/07 09:28:09;;;;;;;27.07;17.00;;;2.10;99.90;;;2.90;78.53;93914.34;5036423;28;20191;-70
2021/01/07 09:30:36;;;;;;;27.43;17.27;;;2.10;99.90;;;2.94;78.67;93916.31;5058328;28;20221;-70
2021/01/07 09:33:03;;;;;;;27.80;17.50;;;2.10;99.90;;;3.09;78.50;93915.94;5048668;28;20212;-70
2021/01/07 09:35:29;;;;;;;31.10;18.57;;;2.30;99.90;;;3.22;78.68;93917.63;5049456;28;20195;-69
2021/01/07 09:37:56;;;;;;;28.97;18.50;;;2.40;99.90;;;3.22;78.67;93920.25;5065398;28;20216;-69
2021/01/07 09:40:22;;;;;;;29.63;19.00;;;2.40;99.90;;;3.22;78.45;93917.63;5052311;28;20801;-68
2021/01/07 09:42:49;;;;;;;28.97;19.37;;;2.40;99.90;;;3.25;78.13;93917.19;5074039;28;20634;-69
2021/01/07 09:45:19;;;;;;;28.37;19.07;;;2.50;99.90;;;3.49;78.01;93921.53;5049069;28;20226;-71
2021/01/07 09:47:45;;;;;;;27.53;17.53;;;2.70;99.90;;;3.80;77.92;93928.38;5073481;28;20720;-70
2021/01/07 09:50:13;;;;;;;27.77;17.80;;;2.90;99.90;;;3.93;77.78;93926.38;5050550;28;20188;-69
2021/01/07 09:52:42;;;;;;;30.08;22.30;;;3.10;99.90;;;3.78;77.73;93931.22;5048239;28;20438;-69
2021/01/07 09:55:09;;;;;;;25.77;17.47;;;3.20;99.90;;;3.98;77.92;93926.53;5049358;28;20230;-69
2021/01/07 09:57:36;;;;;;;26.97;19.03;;;3.30;99.90;;;4.17;77.40;93923.81;5048023;28;20750;-70
2021/01/07 10:00:06;;;;;;;25.97;18.10;;;3.50;99.90;;;4.38;78.06;93924.09;5048599;28;20188;-67
2021/01/07 10:02:40;;;;;;;26.43;17.53;;;3.70;99.90;;;4.34;77.66;93919.53;5062629;28;20211;-68
2021/01/07 10:05:11;;;;;;;25.40;17.20;;;3.80;99.90;;;4.61;77.34;93920.72;5048446;28;20185;-69
2021/01/07 10:07:37;;;;;;;23.83;16.17;;;4.00;99.90;;;4.71;77.50;93917.50;5042736;28;20192;-68
2021/01/07 10:10:03;;;;;;;23.17;16.33;;;4.20;99.90;;;4.96;76.77;93916.28;5048295;28;20238;-70
2021/01/07 10:12:32;;;;;;;22.97;17.27;;;4.40;99.90;;;5.25;77.09;93903.19;5032262;28;20523;-70
2021/01/07 10:14:58;;;;;;;22.40;16.10;;;4.60;99.90;;;5.44;77.33;93905.44;5067870;28;20195;-70
2021/01/07 10:17:28;;;;;;;22.23;16.10;;;4.90;99.90;;;5.75;76.40;93906.03;5049014;28;20219;-69
2021/01/07 10:19:56;;;;;;;23.07;16.47;;;5.20;99.90;;;5.93;76.78;93890.91;5053069;28;20598;-68
2021/01/07 10:22:24;;;;;;;19.57;14.73;;;5.50;99.90;;;6.41;76.55;93898.31;5050790;28;20196;-69
2021/01/07 10:24:51;;;;;;;19.23;14.47;;;5.90;99.90;;;6.87;75.95;93891.91;5069968;28;20207;-69
2021/01/07 10:27:18;;;;;;;18.70;14.43;;;6.40;99.90;;;7.29;76.32;93889.56;5031043;28;20184;-70